• Join FlightAware (Why Join?)
  • Login
  • US Flag 
08:03PM EDT


 

Airport Tracker/Info


-or-


 

Live Flight TrackerFlight Track Log ✈ SKW5550 ✈ 09-Oct-2013 ✈ KDEN - KSMF

Flight Track Log - Related Links

Times and Time Zones

All times are in EDT time to prevent confusion due to time zone crossing. See the SKW5550 flight status page for this flight to view local times or setup timezone preferences in your user account.

Time Position Orientation Groundspeed Altitude Reporting Facility
EDT Latitude Longitude Course Direction KTS MPH feet Rate Location/Type
05:06PM 39.8450 -104.7717 281° West 200 230 6,700  Level Denver Center
05:07PM 39.8850 -104.8486 304° West 240 276 8,100 1,560 Climbing Denver Center
05:08PM 39.9044 -104.9533 284° West 291 335 10,000 1,980 Climbing Denver Center
05:09PM 39.9169 -105.0728 278° West 309 356 12,200 1,860 Climbing Denver Center
05:10PM 39.9275 -105.1819 277° West 307 353 13,900 1,500 Climbing Denver Center
05:11PM 39.9383 -105.3008 277° West 330 380 15,400 1,500 Climbing Denver Center
05:12PM 39.8623 -105.5313 281° West  Level Estimated
05:12PM 39.9517 -105.4314 278° West 338 389 17,100  Level Denver Center
05:13PM 39.9636 -105.5542 277° West 343 395 18,500 1,200 Climbing Denver Center
05:15PM 39.9340 -105.7235 277° West  Level FlightAware Approximate
05:15PM 39.9719 -105.8128 277° West 348 400 21,000  Level Denver Center
05:16PM 39.9753 -105.9481 272° West 347 399 22,100 780 Climbing Denver Center
05:17PM 39.9831 -106.0767 275° West 355 409 22,700 660 Climbing Denver Center
05:19PM 39.9919 -106.2075 275° West 362 417 23,500 900 Climbing Denver Center
05:20PM 39.9969 -106.3406 273° West 367 422 24,600 600 Climbing Denver Center
05:21PM 40.0083 -106.4731 276° West 368 423 24,800 420 Climbing Denver Center
05:22PM 40.0314 -106.6228 281° West 384 442 25,500 720 Climbing Denver Center
05:23PM 40.0553 -106.7742 282° West 383 441 26,300 600 Climbing Denver Center
05:24PM 40.0747 -106.9042 281° West 382 440 26,800 540 Climbing Denver Center
05:25PM 40.0981 -107.0569 281° West 385 443 27,500 660 Climbing Denver Center
05:26PM 40.1181 -107.1869 281° West 383 441 28,200 660 Climbing Denver Center
05:27PM 40.1400 -107.3372 281° West 379 436 28,900 660 Climbing Denver Center
05:28PM 40.1583 -107.4656 281° West 375 432 29,600 720 Climbing Denver Center
05:29PM 40.1806 -107.6139 281° West 373 429 30,400 720 Climbing Denver Center
05:30PM 40.1983 -107.7403 280° West 371 427 31,100 540 Climbing Denver Center
05:31PM 40.2161 -107.8669 280° West 371 427 31,600 420 Climbing Denver Center
05:32PM 40.2383 -108.0186 281° West 379 436 32,000 180 Climbing Denver Center
05:33PM 40.2581 -108.1492 281° West 382 440 32,000  Level Denver Center
05:34PM 40.2792 -108.3056 280° West 389 448 32,000  Level Denver Center
05:35PM 40.2919 -108.3978 280° West 395 455 32,000  Level Salt Lake Center
05:36PM 40.3133 -108.5581 280° West 401 461 32,000  Level Salt Lake Center
05:37PM 40.3322 -108.6981 280° West 406 467 32,000  Level Salt Lake Center
05:38PM 40.3547 -108.8614 280° West 413 475 32,000  Level Salt Lake Center
05:39PM 40.3733 -109.0042 280° West 417 480 32,000  Level Salt Lake Center
05:40PM 40.3919 -109.1469 280° West 417 480 32,000  Level Salt Lake Center
05:41PM 40.4133 -109.3136 280° West 416 479 32,000  Level Salt Lake Center
05:42PM 40.4328 -109.4589 280° West 422 486 32,000  Level Salt Lake Center
05:43PM 40.4539 -109.6281 279° West 422 486 32,000  Level Salt Lake Center
05:44PM 40.4733 -109.7733 280° West 423 487 32,000  Level Salt Lake Center
05:45PM 40.4939 -109.9425 279° West 421 484 32,000  Level Salt Lake Center
05:46PM 40.5100 -110.0872 278° West 419 482 32,000  Level Salt Lake Center
05:47PM 40.5253 -110.2553 277° West 416 479 32,000  Level Salt Lake Center
05:48PM 40.5389 -110.3978 277° West 413 475 32,000  Level Salt Lake Center
05:49PM 40.5547 -110.5644 277° West 412 474 32,000  Level Salt Lake Center
05:50PM 40.5692 -110.7164 277° West 413 475 32,000  Level Salt Lake Center
05:51PM 40.5831 -110.8661 277° West 413 475 32,000  Level Salt Lake Center
05:52PM 40.5958 -111.0175 276° West 416 479 32,000  Level Salt Lake Center
05:53PM 40.6103 -111.1678 277° West 415 478 32,000  Level Salt Lake Center
05:54PM 40.6231 -111.3181 276° West 413 475 32,000  Level Salt Lake Center
05:55PM 40.6358 -111.4672 276° West 410 472 32,000  Level Salt Lake Center
05:56PM 40.6489 -111.6186 277° West 414 476 32,000  Level Salt Lake Center
05:57PM 40.6639 -111.7992 276° West 412 474 32,000  Level Salt Lake Center
05:58PM 40.6758 -111.9497 276° West 410 472 32,000  Level Salt Lake Center
05:59PM 40.6875 -112.1014 276° West 413 475 32,000  Level Salt Lake Center
06:00PM 40.7003 -112.2539 276° West 417 480 32,000  Level Salt Lake Center
06:01PM 40.7125 -112.4053 276° West 414 476 32,000  Level Salt Lake Center
06:03PM 40.7228 -112.5564 275° West 413 475 32,000  Level Salt Lake Center
06:04PM 40.7233 -112.7072 270° West 410 472 32,000  Level Salt Lake Center
06:05PM 40.7253 -112.8569 271° West 409 471 32,000  Level Salt Lake Center
06:06PM 40.7253 -113.0361 270° West 409 471 32,000  Level Salt Lake Center
06:07PM 40.7272 -113.1869 271° West 411 473 32,000  Level Salt Lake Center
06:08PM 40.7286 -113.3378 271° West 412 474 32,000  Level Salt Lake Center
06:09PM 40.7269 -113.4883 269° West 413 475 32,000  Level Salt Lake Center
06:10PM 40.7272 -113.6425 270° West 419 482 32,000  Level Salt Lake Center
06:11PM 40.7267 -113.7942 270° West 417 480 32,000  Level Salt Lake Center
06:12PM 40.7197 -113.9781 267° West 418 481 32,000  Level Salt Lake Center
06:13PM 40.7153 -114.1328 268° West 422 486 32,000  Level Salt Lake Center
06:14PM 40.7089 -114.2875 267° West 424 488 32,000  Level Salt Lake Center
06:15PM 40.7036 -114.4422 267° West 424 488 32,000  Level Salt Lake Center
06:16PM 40.7003 -114.6000 268° West 430 495 32,000  Level Salt Lake Center
06:17PM 40.6922 -114.7539 266° West 426 490 32,000  Level Salt Lake Center
06:18PM 40.6842 -114.9322 267° West 425 489 32,000  Level Salt Lake Center
06:19PM 40.6753 -115.0806 266° West 425 489 32,000  Level Salt Lake Center
06:20PM 40.6619 -115.2533 264° West 425 489 32,000  Level Salt Lake Center
06:22PM 40.6536 -115.4786 267° West 427 491 32,000  Level Oakland Center
06:22PM 40.6489 -115.5781 266° West 428 493 32,000  Level Salt Lake Center
06:23PM 40.6419 -115.7269 267° West 427 491 32,000  Level Salt Lake Center
06:24PM 40.6317 -115.9014 266° West 429 494 32,000  Level Salt Lake Center
06:25PM 40.6233 -116.0519 266° West 430 495 32,000  Level Salt Lake Center
06:26PM 40.6147 -116.2019 266° West 430 495 32,000  Level Salt Lake Center
06:27PM 40.6028 -116.3789 265° West 435 501 32,000  Level Salt Lake Center
06:28PM 40.5947 -116.5289 266° West 433 498 32,000  Level Salt Lake Center
06:29PM 40.5836 -116.7039 265° West 433 498 32,000  Level Salt Lake Center
06:30PM 40.5736 -116.8533 265° West 435 501 32,000  Level Salt Lake Center
06:31PM 40.5353 -117.0172 253° West 431 496 32,000  Level Salt Lake Center
06:32PM 40.4781 -117.1728 244° Southwest 429 494 32,000  Level Salt Lake Center
06:33PM 40.4286 -117.3081 244° Southwest 431 496 32,000  Level Salt Lake Center
06:34PM 40.3786 -117.4436 244° Southwest 432 497 32,000  Level Salt Lake Center
06:36PM 40.3194 -117.6022 244° Southwest 435 501 32,000  Level Salt Lake Center
06:37PM 40.2697 -117.7394 245° Southwest 435 501 32,000  Level Salt Lake Center
06:38PM 40.2089 -117.8975 243° Southwest 436 502 32,000  Level Salt Lake Center
06:39PM 40.1578 -118.0353 244° Southwest 439 505 32,000  Level Salt Lake Center
06:40PM 40.0958 -118.1969 243° Southwest 444 511 32,000  Level Salt Lake Center
06:41PM 40.0392 -118.3483 244° Southwest 444 511 32,000  Level Salt Lake Center
06:42PM 39.9839 -118.4928 243° Southwest 446 513 32,000  Level Salt Lake Center
06:43PM 39.9281 -118.6372 243° Southwest 448 516 32,000  Level Salt Lake Center
06:44PM 39.8725 -118.7836 244° Southwest 453 521 32,000  Level Salt Lake Center
06:45PM 39.8158 -118.9297 243° Southwest 456 525 32,000 -240 Level Salt Lake Center
06:46PM 39.7592 -119.0758 243° Southwest 458 527 31,600 -840 Descending Salt Lake Center
06:47PM 39.6864 -119.2614 243° Southwest 482 555 30,400 -1,200 Descending Salt Lake Center
06:48PM 39.6131 -119.4481 243° Southwest 481 554 28,900 -1,320 Descending Oakland Center
06:49PM 39.5583 -119.5878 243° Southwest 443 510 27,400 -1,620 Descending Oakland Center
06:50PM 39.4789 -119.7486 237° Southwest 443 510 25,600 -1,680 Descending Oakland Center
06:51PM 39.4042 -119.8783 233° Southwest 450 518 24,100 -1,500 Descending Oakland Center
06:52PM 39.3286 -120.0092 233° Southwest 455 524 22,600 -1,560 Descending Oakland Center
06:53PM 39.2503 -120.1506 234° Southwest 453 521 21,000 -1,560 Descending Oakland Center
06:54PM 39.1783 -120.2783 234° Southwest 442 509 19,500 -1,680 Descending Oakland Center
06:55PM 39.1400 -120.4258 252° West 434 499 17,700 -1,620 Descending Oakland Center
06:56PM 39.1036 -120.5694 252° West 425 489 16,200 -1,500 Descending Oakland Center
06:57PM 39.0694 -120.7042 252° West 400 460 14,700 -1,560 Descending Oakland Center
06:58PM 39.0386 -120.8244 252° West 365 420 13,100 -840 Descending Oakland Center
06:59PM 39.0083 -120.9411 252° West 349 402 13,000 -360 Descending Oakland Center
07:00PM 38.9783 -121.0578 252° West 346 398 12,400 -1,200 Descending Oakland Center
07:01PM 38.9508 -121.1633 252° West 325 374 10,600 -1,200 Descending Oakland Center
07:02PM 38.9194 -121.2819 251° West 301 346 10,000 -300 Descending Oakland Center
07:04PM 38.8933 -121.3806 251° West 294 338 10,000 -840 Level Oakland Center
07:05PM 38.8822 -121.4864 262° West 299 344 8,300 -1,740 Descending Oakland Center
07:06PM 38.8714 -121.5856 262° West 290 334 6,500 -1,800 Descending Oakland Center
07:07PM 38.8606 -121.6819 262° West 278 320 4,700 -1,680 Descending Oakland Center
07:08PM 38.7978 -121.7136 201° Southwest 276 318 3,100 -840 Descending Oakland Center
07:09PM 38.7286 -121.7042 174° South 263 303 3,000 -60 Descending Oakland Center
07:10PM 38.6628 -121.6939 173° South 245 282 3,000 -120 Level Oakland Center
07:11PM 38.5881 -121.6808 172° South 232 267 2,800 -540 Descending Oakland Center
07:12PM 38.5694 -121.6242 113° Southeast 211 243 2,000 -660 Descending Oakland Center
07:13PM 38.6008 -121.5814 47° Northeast 171 197 1,500 -600 Descending Oakland Center
07:14PM 38.6439 -121.5817 360° North 158 182 800 -660 Descending Oakland Center
07:15PM 38.6853 -121.5814 360° North 142 163 200 -600 Descending Oakland Center